Nearby METAR Reports

 

KTEB - Teterboro, New Jersey, USA
Distance from station: ENE 2mi, 4km
Updated: 12/04/2022 2:51pm
Clear
Clear
 Wind from varies
Wind: varies 5 mph , 7 km/h
Temperature: 45°F , 7°C
Wind Chill: 42°F , 6°C
Dew Point: 21°F , -6°C
Humidity: 39%
Barometer: 30.15 inHg , 1021 hPa
Clouds: Clear
Visibility: 10 miles , 16 km
2022/12/04 19:51 KTEB 041951Z VRB04KT 10SM CLR 07/M06 A3015 RMK AO2 SLP209 T00721061
KNYC - Nyc/Central Park, New York, USA
Distance from station: SE 8mi, 13km
Updated: 12/04/2022 2:51pm
Clear
Clear
 Wind from varies
Wind: varies 3 mph , 6 km/h
Temperature: 45°F , 7°C
Dew Point: 19°F , -7°C
Humidity: 37%
Barometer: 30.18 inHg , 1022 hPa
Clouds: Clear
Visibility: 10 miles , 16 km
2022/12/04 19:51 KNYC 041951Z AUTO VRB03KT 10SM CLR 07/M07 A3018 RMK AO2 SLP210 T00721072 $
 
KCDW - Caldwell, New Jersey, USA
Distance from station: WNW 10mi, 17km
Updated: 12/04/2022 2:53pm
Clear
Clear
 Wind from varies
Wind: varies 3 mph , 6 km/h
Temperature: 45°F , 7°C
Dew Point: 19°F , -7°C
Humidity: 37%
Barometer: 30.16 inHg , 1021.3 hPa
Clouds: Clear
Visibility: 10 miles , 16 km
2022/12/04 19:53 KCDW 041953Z VRB03KT 10SM CLR 07/M07 A3016 RMK AO2 SLP218 T00721067
KLGA - Nyc/La Guardia, New York, USA
Distance from station: ESE 12mi, 19km
Updated: 12/04/2022 2:51pm
Mostly cloudy
Mostly cloudy
 Wind from NW
Wind: NW 7 mph , 11 km/h
Temperature: 45°F , 7°C
Wind Chill: 41°F , 5°C
Dew Point: 19°F , -7°C
Humidity: 37%
Barometer: 30.15 inHg , 1021 hPa
Clouds: Mostly cloudy
Visibility: 10 miles , 16 km
Cloud details: Few Clouds 5500 ft
Partly cloudy 8500 ft
Mostly cloudy 20000 ft
2022/12/04 19:51 KLGA 041951Z 31006KT 10SM FEW055 SCT085 BKN200 07/M07 A3015 RMK AO2 SLP211 T00721072
 
KEWR - Newark, New Jersey, USA
Distance from station: SSW 12mi, 20km
Updated: 12/04/2022 2:51pm
Mostly cloudy
Mostly cloudy
 Wind from calm
Wind: Calm
Temperature: 46°F , 8°C
Dew Point: 21°F , -6°C
Humidity: 37%
Barometer: 30.15 inHg , 1021 hPa
Clouds: Mostly cloudy
Visibility: 10 miles , 16 km
Cloud details: Few Clouds 5000 ft
Mostly cloudy 20000 ft
2022/12/04 19:51 KEWR 041951Z 00000KT 10SM FEW050 BKN200 08/M06 A3015 RMK AO2 SLP210 T00831056
KMMU - Morristown Muni, New Jersey, USA
Distance from station: WSW 18mi, 29km
Updated: 12/04/2022 3:45pm
Few Clouds
Few Clouds
 Wind from W
Wind: W 5 mph , 7 km/h
Temperature: 43°F , 6°C
Wind Chill: 40°F , 4°C
Dew Point: 25°F , -4°C
Humidity: 49%
Barometer: 30.17 inHg , 1021.7 hPa
Clouds: Few Clouds
Visibility: 10 miles , 16 km
Cloud details: Few Clouds 12000 ft
2022/12/04 20:45 KMMU 042045Z 27004KT 10SM FEW120 06/M04 A3017
 
KJFK - Nyc/Jfk Arpt, New York, USA
Distance from station: SE 23mi, 36km
Updated: 12/04/2022 2:51pm
Mostly cloudy
Mostly cloudy
 Wind from W
Wind: W 8 mph , 13 km/h
Temperature: 46°F , 8°C
Wind Chill: 42°F , 6°C
Dew Point: 21°F , -6°C
Humidity: 37%
Barometer: 30.17 inHg , 1021.7 hPa
Clouds: Mostly cloudy
Visibility: 10 miles , 16 km
Cloud details: Mostly cloudy 20000 ft
2022/12/04 19:51 KJFK 041951Z 28007KT 10SM BKN200 08/M06 A3017 RMK AO2 SLP215 T00781056 $
KHPN - White Plains, New York, USA
Distance from station: NE 25mi, 40km
Updated: 12/04/2022 2:56pm
Clear
Clear
 Wind from WNW
Wind: WNW 8 mph , 13 km/h
Temperature: 43°F , 6°C
Wind Chill: 38°F , 3°C
Dew Point: 19°F , -7°C
Humidity: 39%
Barometer: 30.14 inHg , 1020.7 hPa
Clouds: Clear
Visibility: 10 miles , 16 km
2022/12/04 19:56 KHPN 041956Z 30007KT 10SM CLR 06/M07 A3014 RMK AO2 SLP210 T00561067
 
KSMQ - Somerville, New Jersey, USA
Distance from station: WSW 34mi, 55km
Updated: 12/04/2022 2:53pm
Clear
Clear
 Wind from varies
Wind: varies 3 mph , 6 km/h
Temperature: 45°F , 7°C
Dew Point: 25°F , -4°C
Humidity: 46%
Barometer: 30.15 inHg , 1021 hPa
Clouds: Clear
Visibility: 10 miles , 16 km
2022/12/04 19:53 KSMQ 041953Z AUTO VRB03KT 10SM CLR 07/M04 A3015 RMK AO2 SLP210 T00721044
K12N - Andover, New Jersey, USA
Distance from station: WNW 36mi, 57km
Updated: 12/04/2022 2:54pm

 Wind from varies
Wind: varies 3 mph , 6 km/h
Temperature: 45°F , 7°C
Dew Point: 21°F , -6°C
Humidity: 39%
Barometer: 30.14 inHg , 1020.7 hPa
2022/12/04 19:54 K12N 041954Z AUTO VRB03KT 07/M06 A3014 RMK AO1 SLP211 T00671056
 
KFRG - Farmingdale, New York, USA
Distance from station: ESE 36mi, 58km
Updated: 12/04/2022 2:53pm
Clear
Clear
 Wind from NW
Wind: NW 7 mph , 11 km/h
Temperature: 45°F , 7°C
Wind Chill: 41°F , 5°C
Dew Point: 18°F , -8°C
Humidity: 34%
Barometer: 30.17 inHg , 1021.7 hPa
Clouds: Clear
Visibility: 10 miles , 16 km
2022/12/04 19:53 KFRG 041953Z 32006KT 10SM CLR 07/M08 A3017 RMK AO2 SLP216 T00671078
KFWN - Sussex, New Jersey, USA
Distance from station: NW 37mi, 60km
Updated: 12/04/2022 2:53pm

 Wind from NW
Wind: NW 5 mph , 7 km/h
Temperature: 43°F , 6°C
Wind Chill: 40°F , 4°C
Dew Point: 19°F , -7°C
Humidity: 39%
Barometer: 30.15 inHg , 1021 hPa
2022/12/04 19:53 KFWN 041953Z AUTO 31004KT 06/M07 A3015 RMK AO2 SLP211 T00561067 $
 
KSWF - Newburgh/Stewart, New York, USA
Distance from station: 0 45mi, 72km
Updated: 12/04/2022 2:45pm
Clear
Clear
 Wind from WNW
Wind: WNW 9 mph , 15 km/h
Temperature: 41°F , 5°C
Wind Chill: 35°F , 2°C
Dew Point: 18°F , -8°C
Humidity: 39%
Barometer: 30.13 inHg , 1020.3 hPa
Clouds: Clear
Visibility: 10 miles , 16 km
2022/12/04 19:45 KSWF 041945Z 30008KT 10SM SKC 05/M08 A3013
KMGJ - Montgomery, New York, USA
Distance from station: NNW 47mi, 75km
Updated: 12/04/2022 2:54pm
Clear
Clear
 Wind from NW
Wind: NW 6 mph , 9 km/h
Temperature: 39°F , 4°C
Wind Chill: 35°F , 2°C
Dew Point: 19°F , -7°C
Humidity: 45%
Barometer: 30.13 inHg , 1020.3 hPa
Clouds: Clear
Visibility: 10 miles , 16 km
2022/12/04 19:54 KMGJ 041954Z AUTO 31005KT 10SM CLR 04/M07 A3013 RMK AO2 SLP206 T00441072
 
KBLM - Belmar/Farmdale, New Jersey, USA
Distance from station: S 47mi, 76km
Updated: 12/04/2022 2:56pm
Clear
Clear
 Wind from SW
Wind: SW 6 mph , 9 km/h
Temperature: 45°F , 7°C
Wind Chill: 42°F , 6°C
Dew Point: 25°F , -4°C
Humidity: 46%
Barometer: 30.18 inHg , 1022 hPa
Clouds: Clear
Visibility: 10 miles , 16 km
2022/12/04 19:56 KBLM 041956Z AUTO 23005KT 10SM CLR 07/M04 A3018 RMK AO2 SLP221 T00721044
KDXR - Danbury, Connecticut, USA
Distance from station: NE 47mi, 76km
Updated: 12/04/2022 2:53pm
Clear
Clear
 Wind from varies
Wind: varies 6 mph , 9 km/h
Temperature: 43°F , 6°C
Wind Chill: 39°F , 4°C
Dew Point: 18°F , -8°C
Humidity: 36%
Barometer: 30.15 inHg , 1021 hPa
Clouds: Clear
Visibility: 10 miles , 16 km
2022/12/04 19:53 KDXR 041953Z VRB05KT 10SM CLR 06/M08 A3015 RMK AO2 SLP212 T00561083
 
KISP - Islip, New York, USA
Distance from station: E 52mi, 83km
Updated: 12/04/2022 2:56pm
Mostly cloudy
Mostly cloudy
 Wind from N
Wind: N 8 mph , 13 km/h
Temperature: 45°F , 7°C
Wind Chill: 41°F , 5°C
Dew Point: 19°F , -7°C
Humidity: 37%
Barometer: 30.16 inHg , 1021.3 hPa
Clouds: Mostly cloudy
Visibility: 10 miles , 16 km
Cloud details: Few Clouds 5000 ft
Mostly cloudy 25000 ft
2022/12/04 19:56 KISP 041956Z 36007KT 10SM FEW050 BKN250 07/M07 A3016 RMK AO2 SLP214 T00671067 $
KBDR - Bridgeport, Connecticut, USA
Distance from station: ENE 54mi, 87km
Updated: 12/04/2022 2:52pm
Clear
Clear
 Wind from N
Wind: N 8 mph , 13 km/h
Temperature: 43°F , 6°C
Wind Chill: 38°F , 3°C
Dew Point: 19°F , -7°C
Humidity: 39%
Barometer: 30.16 inHg , 1021.3 hPa
Clouds: Clear
Visibility: 10 miles , 16 km
2022/12/04 19:52 KBDR 041952Z 35007KT 10SM CLR 06/M07 A3016 RMK AO2 SLP211 T00611067
 
KTTN - Trenton, New Jersey, USA
Distance from station: SW 55mi, 88km
Updated: 12/04/2022 2:53pm
Clear
Clear
 Wind from WNW
Wind: WNW 5 mph , 7 km/h
Temperature: 45°F , 7°C
Wind Chill: 42°F , 6°C
Dew Point: 23°F , -5°C
Humidity: 42%
Barometer: 30.17 inHg , 1021.7 hPa
Clouds: Clear
Visibility: 10 miles , 16 km
2022/12/04 19:53 KTTN 041953Z 30004KT 10SM CLR 07/M05 A3017 RMK AO2 SLP210 T00671050
KPOU - Poughkeepsie, New York, USA
Distance from station: N 55mi, 89km
Updated: 12/04/2022 2:53pm
Clear
Clear
 Wind from calm
Wind: Calm
Temperature: 41°F , 5°C
Dew Point: 19°F , -7°C
Humidity: 42%
Barometer: 30.14 inHg , 1020.7 hPa
Clouds: Clear
Visibility: 10 miles , 16 km
2022/12/04 19:53 KPOU 041953Z 00000KT 10SM CLR 05/M07 A3014 RMK AO2 SLP204 T00501072
 
KNEL - Lakehurst Nas, New Jersey, USA
Distance from station: SSW 59mi, 95km
Updated: 11/30/2022 11:03am
NOT Current
Light rain, Overcast
Light rain, Overcast
 Wind from SSE
Wind: SSE 16 mph , 26 km/h, Gust: 24 mph , 39 km/h
Temperature: 55°F , 13°C
Dew Point: 54°F , 12°C
Humidity: 94%
Barometer: 29.89 inHg , 1012.2 hPa
Summary: Light rain
Clouds: Overcast
Cloud details: Mostly cloudy 1400 ft
Mostly cloudy 3200 ft
Overcast 6000 ft
2022/11/30 16:03 KNEL 301603Z AUTO 16014G21KT -RA BKN014 BKN032 OVC060 13/12 A2989 RMK AO2 PRESFR T01280117 PNO $
KWRI - Wrightst/Mcguire, New Jersey, USA
Distance from station: SSW 63mi, 102km
Updated: 12/04/2022 2:55pm
Partly cloudy
Partly cloudy
 Wind from W
Wind: W 6 mph , 9 km/h
Temperature: 45°F , 7°C
Wind Chill: 42°F , 6°C
Dew Point: 23°F , -5°C
Humidity: 42%
Barometer: 30.18 inHg , 1022 hPa
Clouds: Partly cloudy
Visibility: 10 miles , 16 km
Cloud details: Partly cloudy 21000 ft
2022/12/04 19:55 KWRI 041955Z AUTO 26005KT 10SM SCT210 07/M05 A3018 RMK AO2 SLP221 T00711050
 
KHWV - Shirley, New York, USA
Distance from station: E 64mi, 103km
Updated: 12/04/2022 2:56pm
Clear
Clear
 Wind from WNW
Wind: WNW 7 mph , 11 km/h
Temperature: 45°F , 7°C
Wind Chill: 41°F , 5°C
Dew Point: 19°F , -7°C
Humidity: 37%
Barometer: 30.17 inHg , 1021.7 hPa
Clouds: Clear
Visibility: 10 miles , 16 km
2022/12/04 19:56 KHWV 041956Z AUTO 30006KT 10SM CLR 07/M07 A3017 RMK AO2 SLP215 T00671067
KMJX - Toms River, New Jersey, USA
Distance from station: S 64mi, 104km
Updated: 10/12/2022 11:56pm
NOT Current
Clear
Clear
 Wind from calm
Wind: Calm
Temperature: 50°F , 10°C
Dew Point: 50°F , 10°C
Humidity: 100%
Barometer: 30.08 inHg , 1018.6 hPa
Clouds: Clear
Visibility: 10 miles , 16 km
2022/10/13 03:56 KMJX 130356Z AUTO 00000KT 10SM CLR 10/10 A3008 RMK AO2 SLP188 T01000100 402170028 TSNO
 
KDYL - Doylestown, Pennsylvania, USA
Distance from station: SW 65mi, 104km
Updated: 12/04/2022 2:54pm
Clear
Clear
 Wind from WNW
Wind: WNW 5 mph , 7 km/h
Temperature: 45°F , 7°C
Wind Chill: 42°F , 6°C
Dew Point: 21°F , -6°C
Humidity: 39%
Barometer: 30.16 inHg , 1021.3 hPa
Clouds: Clear
Visibility: 10 miles , 16 km
2022/12/04 19:54 KDYL 041954Z AUTO 30004KT 10SM CLR 07/M06 A3016 RMK AO2 SLP218 T00671061
KOXC - Oxford/Waterbury, Connecticut, USA
Distance from station: NE 65mi, 105km
Updated: 12/04/2022 2:51pm
Clear
Clear
 Wind from NW
Wind: NW 7 mph , 11 km/h
Temperature: 37°F , 3°C
Wind Chill: 32°F , 0°C
Dew Point: 19°F , -7°C
Humidity: 48%
Barometer: 30.14 inHg , 1020.7 hPa
Clouds: Clear
Visibility: 10 miles , 16 km
2022/12/04 19:51 KOXC 041951Z 32006KT 10SM CLR 03/M07 A3014 RMK AO2 SLP224 T00331072
 
KMSV - Monticello, New York, USA
Distance from station: NNW 69mi, 111km
Updated: 12/04/2022 2:56pm
Clear
Clear
 Wind from NW
Wind: NW 6 mph , 9 km/h
Temperature: 36°F , 2°C
Wind Chill: 31°F , -1°C
Dew Point: 19°F , -7°C
Humidity: 52%
Barometer: 30.12 inHg , 1020 hPa
Clouds: Clear
Visibility: 10 miles , 16 km
2022/12/04 19:56 KMSV 041956Z AUTO 31005KT 10SM CLR 02/M07 A3012 RMK AO2 SLP212 T00171072 FZRANO
KHVN - New Haven/Tweed, Connecticut, USA
Distance from station: ENE 70mi, 112km
Updated: 12/04/2022 2:53pm
Clear
Clear
 Wind from NNE
Wind: NNE 6 mph , 9 km/h
Temperature: 45°F , 7°C
Wind Chill: 42°F , 6°C
Dew Point: 25°F , -4°C
Humidity: 46%
Barometer: 30.16 inHg , 1021.3 hPa
Clouds: Clear
Visibility: 10 miles , 16 km
2022/12/04 19:53 KHVN 041953Z 03005KT 10SM CLR 07/M04 A3016 RMK AO2 SLP211 T00721044
 
KMPO - Mt. Pocono, Pennsylvania, USA
Distance from station: WNW 70mi, 113km
Updated: 12/04/2022 2:53pm
Clear
Clear
 Wind from WNW
Wind: WNW 5 mph , 7 km/h
Temperature: 36°F , 2°C
Wind Chill: 32°F , 0°C
Dew Point: 19°F , -7°C
Humidity: 52%
Barometer: 30.08 inHg , 1018.6 hPa
Clouds: Clear
Visibility: 10 miles , 16 km
2022/12/04 19:53 KMPO 041953Z AUTO 29004KT 10SM CLR 02/M07 A3008 RMK AO2 SLP206 T00171067
KPNE - Philadelphia/Ne, Pennsylvania, USA
Distance from station: SW 72mi, 116km
Updated: 12/04/2022 2:54pm
Clear
Clear
 Wind from W
Wind: W 8 mph , 13 km/h
Temperature: 45°F , 7°C
Wind Chill: 41°F , 5°C
Dew Point: 23°F , -5°C
Humidity: 42%
Barometer: 30.20 inHg , 1022.7 hPa
Clouds: Clear
Visibility: 10 miles , 16 km
2022/12/04 19:54 KPNE 041954Z 28007KT 10SM CLR 07/M05 A3020 RMK AO2 SLP226 T00671050
 
KABE - Allentown, Pennsylvania, USA
Distance from station: W 73mi, 117km
Updated: 12/04/2022 2:51pm
Clear
Clear
 Wind from W
Wind: W 9 mph , 15 km/h
Temperature: 43°F , 6°C
Wind Chill: 38°F , 3°C
Dew Point: 21°F , -6°C
Humidity: 42%
Barometer: 30.16 inHg , 1021.3 hPa
Clouds: Clear
Visibility: 10 miles , 16 km
2022/12/04 19:51 KABE 041951Z 26008KT 10SM CLR 06/M06 A3016 RMK AO2 SLP215 T00561056
KUKT - Quakertown Arp, Pennsylvania, USA
Distance from station: WSW 74mi, 119km
Updated: 12/04/2022 3:35pm
Clear
Clear
 Wind from SW
Wind: SW 7 mph , 11 km/h
Temperature: 41°F , 5°C
Wind Chill: 36°F , 2°C
Dew Point: 23°F , -5°C
Humidity: 49%
Barometer: 30.17 inHg , 1021.7 hPa
Clouds: Clear
Visibility: 10 miles , 16 km
2022/12/04 20:35 KUKT 042035Z AUTO 23006KT 10SM CLR 05/M05 A3017 RMK A01
 
KVAY - Mount Holly, New Jersey, USA
Distance from station: SSW 75mi, 120km
Updated: 12/04/2022 2:54pm
Clear
Clear
 Wind from NW
Wind: NW 8 mph , 13 km/h
Temperature: 45°F , 7°C
Wind Chill: 41°F , 5°C
Dew Point: 21°F , -6°C
Humidity: 39%
Barometer: 30.19 inHg , 1022.4 hPa
Clouds: Clear
Visibility: 10 miles , 16 km
2022/12/04 19:54 KVAY 041954Z AUTO 31007KT 270V330 10SM CLR 07/M06 A3019 RMK AO2 SLP222 T00671056
KXLL - Allentown Queen, Pennsylvania, USA
Distance from station: WSW 76mi, 122km
Updated: 12/04/2022 3:35pm
Clear
Clear
 Wind from SW
Wind: SW 8 mph , 13 km/h
Temperature: 41°F , 5°C
Wind Chill: 36°F , 2°C
Dew Point: 27°F , -3°C
Humidity: 57%
Barometer: 30.18 inHg , 1022 hPa
Clouds: Clear
Visibility: 10 miles , 16 km
2022/12/04 20:35 KXLL 042035Z AUTO 23007KT 10SM CLR 05/M03 A3018 RMK AO2
 
KFOK - Westhampton Beac, New York, USA
Distance from station: E 77mi, 124km
Updated: 12/04/2022 2:53pm
Clear
Clear
 Wind from NW
Wind: NW 7 mph , 11 km/h
Temperature: 43°F , 6°C
Wind Chill: 39°F , 4°C
Dew Point: 21°F , -6°C
Humidity: 42%
Barometer: 30.17 inHg , 1021.7 hPa
Clouds: Clear
Visibility: 10 miles , 16 km
2022/12/04 19:53 KFOK 041953Z 31006KT 10SM CLR 06/M06 A3017 RMK AO2 SLP218 T00611056
KLOM - Philly Wings F, Pennsylvania, USA
Distance from station: SW 79mi, 128km
Updated: 12/04/2022 3:35pm
Clear
Clear
 Wind from WSW
Wind: WSW 9 mph , 15 km/h
Temperature: 43°F , 6°C
Wind Chill: 38°F , 3°C
Dew Point: 25°F , -4°C
Humidity: 49%
Barometer: 30.18 inHg , 1022 hPa
Clouds: Clear
Visibility: 10 miles , 16 km
2022/12/04 20:35 KLOM 042035Z AUTO 24008KT 10SM CLR 06/M04 A3018 RMK AO2 T00551042
 
KMMK - Meriden, Connecticut, USA
Distance from station: NE 80mi, 128km
Updated: 12/04/2022 2:53pm
Clear
Clear
 Wind from NNW
Wind: NNW 6 mph , 9 km/h
Temperature: 41°F , 5°C
Wind Chill: 37°F , 3°C
Dew Point: 19°F , -7°C
Humidity: 42%
Barometer: 30.16 inHg , 1021.3 hPa
Clouds: Clear
Visibility: 10 miles , 16 km
2022/12/04 19:53 KMMK 041953Z AUTO 34005KT 10SM CLR 05/M07 A3016 RMK AO2 SLP214 T00501067
KPTW - Pottstown, Pennsylvania, USA
Distance from station: WSW 88mi, 141km
Updated: 11/30/2022 5:54pm
NOT Current
Overcast
Overcast
 Wind from WNW
Wind: WNW 7 mph , 11 km/h
Temperature: 48°F , 9°C
Wind Chill: 45°F , 7°C
Dew Point: 37°F , 3°C
Humidity: 66%
Barometer: 29.83 inHg , 1010.2 hPa
Clouds: Overcast
Visibility: 10 miles , 16 km
Cloud details: Mostly cloudy 8000 ft
Overcast 9500 ft
2022/11/30 22:54 KPTW 302254Z AUTO 29006KT 10SM BKN080 OVC095 09/03 A2983 RMK AO2 SLP100 T00940033
 
KSNC - Chester, Connecticut, USA
Distance from station: ENE 90mi, 146km
Updated: 12/04/2022 3:35pm
Clear
Clear
 Wind from varies
Wind: varies 6 mph , 9 km/h
Temperature: 39°F , 4°C
Wind Chill: 35°F , 2°C
Dew Point: 19°F , -7°C
Humidity: 45%
Barometer: 30.15 inHg , 1021 hPa
Clouds: Clear
Visibility: 10 miles , 16 km
2022/12/04 20:35 KSNC 042035Z AUTO VRB05KT 10SM CLR 04/M07 A3015 RMK AO2
KPHL - Philadelphia, Pennsylvania, USA
Distance from station: SW 91mi, 146km
Updated: 12/04/2022 2:54pm
Mostly cloudy
Mostly cloudy
 Wind from W
Wind: W 8 mph , 13 km/h
Temperature: 45°F , 7°C
Wind Chill: 41°F , 5°C
Dew Point: 21°F , -6°C
Humidity: 39%
Barometer: 30.20 inHg , 1022.7 hPa
Clouds: Mostly cloudy
Visibility: 10 miles , 16 km
Cloud details: Mostly cloudy 20000 ft
2022/12/04 19:54 KPHL 041954Z 27007KT 10SM BKN200 07/M06 A3020 RMK AO2 SLP225 T00721056 $
 
KAVP - Avoca/Wilkes B., Pennsylvania, USA
Distance from station: WNW 91mi, 147km
Updated: 12/04/2022 2:54pm
Clear
Clear
 Wind from SW
Wind: SW 7 mph , 11 km/h
Temperature: 39°F , 4°C
Wind Chill: 34°F , 1°C
Dew Point: 21°F , -6°C
Humidity: 48%
Barometer: 30.14 inHg , 1020.7 hPa
Clouds: Clear
Visibility: 10 miles , 16 km
2022/12/04 19:54 KAVP 041954Z 23006KT 10SM CLR 04/M06 A3014 RMK AO2 SLP210 T00391056 $
KHFD - Hartford/Brainar, Connecticut, USA
Distance from station: NE 96mi, 155km
Updated: 12/04/2022 2:53pm
Few Clouds
Few Clouds
 Wind from NW
Wind: NW 6 mph , 9 km/h
Temperature: 41°F , 5°C
Wind Chill: 37°F , 3°C
Dew Point: 21°F , -6°C
Humidity: 45%
Barometer: 30.16 inHg , 1021.3 hPa
Clouds: Few Clouds
Visibility: 10 miles , 16 km
Cloud details: Few Clouds 5000 ft
2022/12/04 19:53 KHFD 041953Z 32005KT 10SM FEW050 05/M06 A3016 RMK AO2 SLP213 T00501061
 
KHTO - East Hampton, New York, USA
Distance from station: E 96mi, 155km
Updated: 05/21/2022 1:35pm
NOT Current
Clear
Clear
 Wind from WNW
Wind: WNW 5 mph , 7 km/h
Temperature: 81°F , 27°C
Heat Index: 83°F , 28°C
Dew Point: 66°F , 19°C
Humidity: 62%
Barometer: 30.00 inHg , 1015.9 hPa
Clouds: Clear
Visibility: 10 miles , 16 km
2022/05/21 17:35 KHTO 211735Z AUTO 30004KT 10SM CLR 27/19 A3000 RMK AO2 T02670193
KACY - Atlantic City, New Jersey, USA
Distance from station: SSW 99mi, 160km
Updated: 12/04/2022 2:54pm
Clear
Clear
 Wind from W
Wind: W 5 mph , 7 km/h
Temperature: 45°F , 7°C
Wind Chill: 42°F , 6°C
Dew Point: 25°F , -4°C
Humidity: 46%
Barometer: 30.18 inHg , 1022 hPa
Clouds: Clear
Visibility: 10 miles , 16 km
2022/12/04 19:54 KACY 041954Z 27004KT 10SM CLR 07/M04 A3018 RMK AO2 SLP221 T00721044 $